createdAt,value
2018-07-03T00:00:25.587Z,63.60
2018-07-03T00:02:53.388Z,63.60
2018-07-03T00:05:21.128Z,63.60
2018-07-03T00:07:48.831Z,63.70
2018-07-03T00:10:16.595Z,64.30
2018-07-03T00:12:44.339Z,64.90
2018-07-03T00:15:12.060Z,64.20
2018-07-03T00:17:39.899Z,64.20
2018-07-03T00:20:08.327Z,64.60
2018-07-03T00:22:36.063Z,64.90
2018-07-03T00:25:03.804Z,65.20
2018-07-03T00:27:31.496Z,65.40
2018-07-03T00:29:59.191Z,66.00
2018-07-03T00:32:26.876Z,66.30
2018-07-03T00:34:54.669Z,66.20
2018-07-03T00:37:22.424Z,66.30
2018-07-03T00:39:50.215Z,66.50
2018-07-03T00:42:17.908Z,66.60
2018-07-03T00:44:45.691Z,66.80
2018-07-03T00:47:13.495Z,67.70
2018-07-03T00:49:41.375Z,67.70
2018-07-03T00:52:09.140Z,68.40
2018-07-03T00:54:36.843Z,68.40
2018-07-03T00:57:04.772Z,68.30
2018-07-03T00:59:32.557Z,68.70
2018-07-03T01:02:00.267Z,68.80
2018-07-03T01:04:27.980Z,69.00
2018-07-03T01:06:55.728Z,69.40
2018-07-03T01:09:23.521Z,69.40
2018-07-03T01:11:51.312Z,69.40
2018-07-03T01:14:19.048Z,70.20
2018-07-03T01:16:46.801Z,70.00
2018-07-03T01:19:14.568Z,70.20
2018-07-03T01:21:42.373Z,70.70
2018-07-03T01:24:10.120Z,70.80
2018-07-03T01:26:37.840Z,70.50
2018-07-03T01:29:05.564Z,70.50
2018-07-03T01:31:33.295Z,71.10
2018-07-03T01:34:01.135Z,71.20
2018-07-03T01:36:28.880Z,71.30
2018-07-03T01:38:56.700Z,71.20
2018-07-03T01:41:24.476Z,72.10
2018-07-03T01:43:52.187Z,71.90
2018-07-03T01:46:19.940Z,71.90
2018-07-03T01:48:47.648Z,71.80
2018-07-03T01:51:15.336Z,71.70
2018-07-03T01:53:43.032Z,71.90
2018-07-03T01:56:10.811Z,72.00
2018-07-03T01:58:38.548Z,72.20
2018-07-03T02:01:06.305Z,72.30
2018-07-03T02:03:33.843Z,72.80
2018-07-03T02:06:01.371Z,73.30
2018-07-03T02:08:28.880Z,73.10
2018-07-03T02:10:56.411Z,72.80
2018-07-03T02:13:23.918Z,72.90
2018-07-03T02:15:51.455Z,72.80
2018-07-03T02:18:18.960Z,73.70
2018-07-03T02:20:46.482Z,73.10
2018-07-03T02:23:14.012Z,73.50
2018-07-03T02:25:41.523Z,73.40
2018-07-03T02:28:09.032Z,73.90
2018-07-03T02:30:36.567Z,74.40
2018-07-03T02:33:04.107Z,74.40
2018-07-03T02:35:31.635Z,74.10
2018-07-03T02:37:59.156Z,74.20
2018-07-03T02:40:26.667Z,74.20
2018-07-03T02:42:54.184Z,74.50
2018-07-03T02:45:21.704Z,75.00
2018-07-03T02:47:49.234Z,75.40
2018-07-03T02:50:16.748Z,75.30
2018-07-03T02:52:44.267Z,75.90
2018-07-03T02:55:11.796Z,75.50
2018-07-03T02:57:39.307Z,76.60
2018-07-03T03:02:34.562Z,75.80
2018-07-03T03:05:02.083Z,76.00
2018-07-03T03:07:29.635Z,76.10
2018-07-03T03:09:57.155Z,76.00
2018-07-03T03:12:24.674Z,76.50
2018-07-03T03:14:52.186Z,76.60
2018-07-03T03:17:19.707Z,76.70
2018-07-03T03:19:47.239Z,76.40
2018-07-03T03:22:14.751Z,76.40
2018-07-03T03:24:42.267Z,76.20
2018-07-03T03:27:09.779Z,76.10
2018-07-03T03:29:37.295Z,76.20
2018-07-03T03:32:04.823Z,76.50
2018-07-03T03:34:32.327Z,76.50
2018-07-03T03:36:59.854Z,76.40
2018-07-03T03:39:27.359Z,76.40
2018-07-03T03:41:54.870Z,76.60
2018-07-03T03:44:22.400Z,77.00
2018-07-03T03:46:49.918Z,77.10
2018-07-03T03:49:17.431Z,77.20
2018-07-03T03:51:44.951Z,77.00
2018-07-03T03:54:12.643Z,77.30
2018-07-03T03:56:40.167Z,77.60
2018-07-03T03:59:07.670Z,77.60
2018-07-03T04:01:35.208Z,77.50
2018-07-03T04:04:02.730Z,77.20
2018-07-03T04:06:30.263Z,77.10
2018-07-03T04:08:57.779Z,77.20
2018-07-03T04:11:25.296Z,77.30
2018-07-03T04:13:52.960Z,77.30
2018-07-03T04:16:20.479Z,77.30
2018-07-03T04:18:48.015Z,77.50
2018-07-03T04:21:15.562Z,77.50
2018-07-03T04:23:43.065Z,77.30
2018-07-03T04:26:10.588Z,77.40
2018-07-03T04:28:38.095Z,77.40
2018-07-03T04:31:05.637Z,77.30
2018-07-03T04:33:33.144Z,77.40
2018-07-03T04:36:00.674Z,77.40
2018-07-03T04:40:55.772Z,77.60
2018-07-03T04:43:23.294Z,77.50
2018-07-03T04:45:50.991Z,77.50
2018-07-03T04:48:18.530Z,77.10
2018-07-03T04:50:46.062Z,76.80
2018-07-03T04:53:13.590Z,75.30
2018-07-03T04:55:41.111Z,71.00
2018-07-03T04:58:08.631Z,62.70
2018-07-03T05:00:36.161Z,56.10
2018-07-03T05:03:03.708Z,52.10
2018-07-03T05:05:31.243Z,48.70
2018-07-03T05:07:58.767Z,46.20
2018-07-03T05:10:26.286Z,43.80
2018-07-03T05:12:53.800Z,42.20
2018-07-03T05:15:21.335Z,40.70
2018-07-03T05:17:49.079Z,38.20
2018-07-03T05:20:16.603Z,37.10
2018-07-03T05:22:44.143Z,35.80
2018-07-03T05:25:11.667Z,34.20
2018-07-03T05:27:39.199Z,33.70
2018-07-03T05:30:07.270Z,32.50
2018-07-03T05:32:34.799Z,31.20
2018-07-03T05:35:02.497Z,30.30
2018-07-03T05:37:30.083Z,29.40
2018-07-03T05:42:25.231Z,27.90
2018-07-03T05:44:52.799Z,27.50
2018-07-03T05:47:20.408Z,26.90
2018-07-03T05:49:48.038Z,26.50
2018-07-03T05:52:15.482Z,25.70
2018-07-03T05:54:43.008Z,25.20
2018-07-03T05:59:38.119Z,24.50
2018-07-03T06:02:06.147Z,24.20
2018-07-03T06:04:33.663Z,23.90
2018-07-03T06:07:01.193Z,23.40
2018-07-03T06:09:28.735Z,23.20
2018-07-03T06:11:56.271Z,23.00
2018-07-03T06:14:23.798Z,22.70
2018-07-03T06:16:55.224Z,22.30
2018-07-03T06:19:23.900Z,21.70
2018-07-03T06:21:52.067Z,21.90
2018-07-03T06:24:19.592Z,21.80
2018-07-03T06:26:47.307Z,21.60
2018-07-03T06:29:14.827Z,22.00
2018-07-03T06:31:42.346Z,21.50
2018-07-03T06:34:10.297Z,21.30
2018-07-03T06:36:37.630Z,21.30
2018-07-03T06:39:09.255Z,21.20
2018-07-03T06:41:36.826Z,21.20
2018-07-03T06:44:04.391Z,21.20
2018-07-03T06:46:31.948Z,21.20
2018-07-03T06:48:59.451Z,21.10
2018-07-03T06:53:54.875Z,20.90
2018-07-03T06:56:22.386Z,21.00
2018-07-03T06:58:49.902Z,20.90
2018-07-03T07:01:17.419Z,20.80
2018-07-03T07:03:44.951Z,20.80
2018-07-03T07:06:12.559Z,20.80
2018-07-03T07:08:40.156Z,20.50
2018-07-03T07:11:07.606Z,20.60
2018-07-03T07:16:02.727Z,20.50
2018-07-03T07:18:30.252Z,20.70
2018-07-03T07:20:57.771Z,20.90
2018-07-03T07:23:25.287Z,20.90
2018-07-03T07:25:52.810Z,21.10
2018-07-03T07:28:42.157Z,21.70
2018-07-03T07:31:09.689Z,21.20
2018-07-03T07:33:37.219Z,21.20
2018-07-03T07:36:04.747Z,21.20
2018-07-03T07:38:32.282Z,21.30
2018-07-03T07:40:59.803Z,21.50
2018-07-03T07:43:27.331Z,21.50
2018-07-03T07:45:55.032Z,21.40
2018-07-03T07:48:22.571Z,21.50
2018-07-03T07:50:50.086Z,21.30
2018-07-03T07:53:17.648Z,21.90
2018-07-03T07:55:45.167Z,21.90
2018-07-03T07:58:12.684Z,22.10
2018-07-03T08:00:40.211Z,22.10
2018-07-03T08:03:07.735Z,22.30
2018-07-03T08:05:35.263Z,22.30
2018-07-03T08:08:02.795Z,22.40
2018-07-03T08:10:30.324Z,22.20
2018-07-03T08:12:57.859Z,21.70
2018-07-03T08:15:25.464Z,21.90
2018-07-03T08:18:14.683Z,22.00
2018-07-03T08:20:42.217Z,22.30
2018-07-03T08:23:09.772Z,22.30
2018-07-03T08:25:37.283Z,22.70
2018-07-03T08:28:04.825Z,22.80
2018-07-03T08:30:32.331Z,22.60
2018-07-03T08:32:59.863Z,22.60
2018-07-03T08:35:27.375Z,22.80
2018-07-03T08:37:54.902Z,22.80
2018-07-03T08:40:22.415Z,22.80
2018-07-03T08:42:49.947Z,22.40
2018-07-03T08:45:17.482Z,22.70
2018-07-03T08:47:45.005Z,22.90
2018-07-03T08:50:15.783Z,23.20
2018-07-03T08:52:43.300Z,23.50
2018-07-03T08:55:10.921Z,23.40
2018-07-03T08:57:38.396Z,23.00
2018-07-03T09:00:06.915Z,22.90
2018-07-03T09:02:34.483Z,22.90
2018-07-03T09:05:02.018Z,23.00
2018-07-03T09:07:29.544Z,22.70
2018-07-03T09:09:57.075Z,22.40
2018-07-03T09:12:24.603Z,22.50
2018-07-03T09:14:52.132Z,22.30
2018-07-03T09:17:25.359Z,21.60
2018-07-03T09:19:52.899Z,21.50
2018-07-03T09:22:20.526Z,21.90
2018-07-03T09:24:49.074Z,22.10
2018-07-03T09:27:16.671Z,21.90
2018-07-03T09:29:44.199Z,22.30
2018-07-03T09:32:11.715Z,22.50
2018-07-03T09:34:39.234Z,22.80
2018-07-03T09:37:06.771Z,22.60
2018-07-03T09:39:34.298Z,22.40
2018-07-03T09:42:07.243Z,21.90
2018-07-03T09:44:34.768Z,21.70
2018-07-03T09:47:02.307Z,21.70
2018-07-03T09:49:29.856Z,21.70
2018-07-03T09:51:57.455Z,21.40
2018-07-03T09:54:24.982Z,21.40
2018-07-03T09:56:52.715Z,21.60
2018-07-03T09:59:20.250Z,21.50
2018-07-03T10:01:47.780Z,21.50
2018-07-03T10:04:15.328Z,21.00
2018-07-03T10:06:42.883Z,20.70
2018-07-03T10:09:11.299Z,20.80
2018-07-03T10:11:38.952Z,20.40
2018-07-03T10:14:06.727Z,20.80
2018-07-03T10:16:34.231Z,20.60
2018-07-03T10:19:01.768Z,20.30
2018-07-03T10:21:29.288Z,20.30
2018-07-03T10:23:56.815Z,20.00
2018-07-03T10:26:24.343Z,19.90
2018-07-03T10:28:52.068Z,20.30
2018-07-03T10:31:19.593Z,20.20
2018-07-03T10:33:47.127Z,19.80
2018-07-03T10:36:14.651Z,20.10
2018-07-03T10:38:42.171Z,20.60
2018-07-03T10:41:09.913Z,20.60
2018-07-03T10:43:37.419Z,20.30
2018-07-03T10:46:04.961Z,19.80
2018-07-03T10:48:32.478Z,19.90
2018-07-03T10:51:00.015Z,19.90
2018-07-03T10:53:27.560Z,20.20
2018-07-03T10:55:55.076Z,20.30
2018-07-03T10:58:22.615Z,20.60
2018-07-03T11:00:50.139Z,20.60
2018-07-03T11:03:17.695Z,20.40
2018-07-03T11:05:45.295Z,20.40
2018-07-03T11:08:12.775Z,20.50
2018-07-03T11:10:40.308Z,20.50
2018-07-03T11:15:35.425Z,21.10
2018-07-03T11:18:02.933Z,21.30
2018-07-03T11:20:30.639Z,21.10
2018-07-03T11:22:58.184Z,21.20
2018-07-03T11:25:25.718Z,21.10
2018-07-03T11:27:53.243Z,21.30
2018-07-03T11:30:20.772Z,20.80
2018-07-03T11:32:48.315Z,20.60
2018-07-03T11:35:15.867Z,20.80
2018-07-03T11:37:43.411Z,21.20
2018-07-03T11:40:10.930Z,21.20
2018-07-03T11:42:38.460Z,21.00
2018-07-03T11:45:05.982Z,20.50
2018-07-03T11:47:33.508Z,20.70
2018-07-03T11:50:01.047Z,20.70
2018-07-03T11:52:28.890Z,20.90
2018-07-03T11:54:56.423Z,20.70
2018-07-03T11:57:23.991Z,20.50
2018-07-03T11:59:51.521Z,20.60
2018-07-03T12:02:19.062Z,20.60
2018-07-03T12:07:14.194Z,20.60
2018-07-03T12:09:41.727Z,20.50
2018-07-03T12:12:09.251Z,20.40
2018-07-03T12:14:36.776Z,20.40
2018-07-03T12:17:04.325Z,20.30
2018-07-03T12:19:31.868Z,20.60
2018-07-03T12:21:59.415Z,20.90
2018-07-03T12:24:26.946Z,20.70
2018-07-03T12:26:54.472Z,20.30
2018-07-03T12:29:22.007Z,19.90
2018-07-03T12:31:49.519Z,19.70
2018-07-03T12:34:17.027Z,19.40
2018-07-03T12:36:44.553Z,19.20
2018-07-03T12:39:12.344Z,19.30
2018-07-03T12:41:39.895Z,19.40
2018-07-03T12:44:07.700Z,19.40
2018-07-03T12:46:35.443Z,19.60
2018-07-03T12:49:02.999Z,19.20
2018-07-03T12:51:30.584Z,18.90
2018-07-03T12:53:58.123Z,19.40
2018-07-03T12:56:25.654Z,19.40
2018-07-03T12:58:53.743Z,19.10
2018-07-03T13:01:21.278Z,18.80
2018-07-03T13:03:48.828Z,18.90
2018-07-03T13:06:16.391Z,18.90
2018-07-03T13:08:43.921Z,18.90
2018-07-03T13:11:11.431Z,19.30
2018-07-03T13:13:38.959Z,18.90
2018-07-03T13:16:06.482Z,19.20
2018-07-03T13:18:34.023Z,19.10
2018-07-03T13:21:01.560Z,19.40
2018-07-03T13:23:29.095Z,19.60
2018-07-03T13:25:56.626Z,19.70
2018-07-03T13:28:24.167Z,19.70
2018-07-03T13:30:51.679Z,19.50
2018-07-03T13:33:19.211Z,19.20
2018-07-03T13:35:46.728Z,19.00
2018-07-03T13:38:14.263Z,19.00
2018-07-03T13:40:41.802Z,19.00
2018-07-03T13:43:09.347Z,18.90
2018-07-03T13:45:36.879Z,18.70
2018-07-03T13:48:04.946Z,18.80
2018-07-03T13:50:32.460Z,18.80
2018-07-03T13:52:59.974Z,19.00
2018-07-03T13:55:27.670Z,19.20
2018-07-03T13:57:55.191Z,19.10
2018-07-03T14:00:22.755Z,19.00
2018-07-03T14:02:50.331Z,18.90
2018-07-03T14:05:24.223Z,18.80
2018-07-03T14:07:51.739Z,18.80
2018-07-03T14:10:23.019Z,18.70
2018-07-03T14:12:50.552Z,18.70
2018-07-03T14:15:18.099Z,18.90
2018-07-03T14:17:45.615Z,18.90
2018-07-03T14:20:13.160Z,18.80
2018-07-03T14:22:42.714Z,18.70
2018-07-03T14:25:10.258Z,18.70
2018-07-03T14:27:37.787Z,18.70
2018-07-03T14:30:05.335Z,18.90
2018-07-03T14:32:32.871Z,18.80
2018-07-03T14:35:00.391Z,18.80
2018-07-03T14:37:27.924Z,18.70
2018-07-03T14:39:55.455Z,18.90
2018-07-03T14:42:22.992Z,18.80
2018-07-03T14:45:03.427Z,18.70
2018-07-03T14:47:30.966Z,18.70
2018-07-03T14:49:58.486Z,19.30
2018-07-03T14:52:26.028Z,19.00
2018-07-03T14:54:53.560Z,18.80
2018-07-03T14:57:21.079Z,18.80
2018-07-03T14:59:48.599Z,19.10
2018-07-03T15:02:16.152Z,19.10
2018-07-03T15:04:43.675Z,19.10
2018-07-03T15:07:11.264Z,19.20
2018-07-03T15:12:06.387Z,19.10
2018-07-03T15:14:33.951Z,18.90
2018-07-03T15:17:01.479Z,18.80
2018-07-03T15:19:34.943Z,19.10
2018-07-03T15:22:02.466Z,19.40
2018-07-03T15:24:30.012Z,19.40
2018-07-03T15:26:57.552Z,19.40
2018-07-03T15:29:25.079Z,19.40
2018-07-03T15:31:52.648Z,19.60
2018-07-03T15:34:20.142Z,19.50
2018-07-03T15:36:47.691Z,19.50
2018-07-03T15:39:15.225Z,19.40
2018-07-03T15:41:42.742Z,19.20
2018-07-03T15:44:27.927Z,19.40
2018-07-03T15:46:55.440Z,19.50
2018-07-03T15:49:22.946Z,19.30
2018-07-03T15:51:50.482Z,19.70
2018-07-03T15:54:18.004Z,19.90
2018-07-03T15:56:45.548Z,20.00
2018-07-03T15:59:13.071Z,20.20
2018-07-03T16:01:40.595Z,20.40
2018-07-03T16:04:59.719Z,20.50
2018-07-03T16:08:44.403Z,20.30
2018-07-03T16:11:11.939Z,20.50
2018-07-03T16:13:39.461Z,20.50
2018-07-03T16:16:07.234Z,20.50
2018-07-03T16:18:34.769Z,20.50
2018-07-03T16:21:02.303Z,20.30
2018-07-03T16:23:29.831Z,20.70
2018-07-03T16:25:57.359Z,20.80
2018-07-03T16:28:24.891Z,20.90
2018-07-03T16:30:52.411Z,20.90
2018-07-03T16:33:20.028Z,20.90
2018-07-03T16:35:47.487Z,21.00
2018-07-03T16:38:15.012Z,21.10
2018-07-03T16:40:42.545Z,21.40
2018-07-03T16:43:10.063Z,21.70
2018-07-03T16:45:37.599Z,21.70
2018-07-03T16:48:05.194Z,21.60
2018-07-03T16:50:32.695Z,21.90
2018-07-03T16:53:00.234Z,22.20
2018-07-03T16:55:27.748Z,22.40
2018-07-03T16:57:55.280Z,22.60
2018-07-03T17:00:27.198Z,22.80
2018-07-03T17:02:54.744Z,23.10
2018-07-03T17:05:22.722Z,23.30
2018-07-03T17:07:50.251Z,23.50
2018-07-03T17:10:17.783Z,23.70
2018-07-03T17:12:45.330Z,24.00
2018-07-03T17:15:12.887Z,24.10
2018-07-03T17:17:40.443Z,24.30
2018-07-03T17:20:07.995Z,24.40
2018-07-03T17:22:35.567Z,24.50
2018-07-03T17:25:03.355Z,24.70
2018-07-03T17:27:30.919Z,24.80
2018-07-03T17:29:58.449Z,25.00
2018-07-03T17:32:26.012Z,25.10
2018-07-03T17:34:53.541Z,25.20
2018-07-03T17:37:21.096Z,25.30
2018-07-03T17:40:06.414Z,25.30
2018-07-03T17:42:51.793Z,25.30
2018-07-03T17:45:46.404Z,25.30
2018-07-03T17:48:14.642Z,25.40
2018-07-03T17:50:42.207Z,25.50
2018-07-03T17:53:09.778Z,25.70
2018-07-03T17:55:37.342Z,25.90
2018-07-03T17:58:05.525Z,26.20
2018-07-03T18:00:44.352Z,26.50
2018-07-03T18:03:11.908Z,26.80
2018-07-03T18:05:39.442Z,27.30
2018-07-03T18:08:06.996Z,27.50
2018-07-03T18:10:34.564Z,28.00
2018-07-03T18:13:02.112Z,28.10
2018-07-03T18:15:29.663Z,28.70
2018-07-03T18:17:57.207Z,28.90
2018-07-03T18:20:24.787Z,28.70
2018-07-03T18:22:52.375Z,28.70
2018-07-03T18:25:19.943Z,28.70
2018-07-03T18:27:47.495Z,28.70
2018-07-03T18:30:15.063Z,28.80
2018-07-03T18:32:42.647Z,28.90
2018-07-03T18:35:10.195Z,28.90
2018-07-03T18:37:37.742Z,29.60
2018-07-03T18:40:05.610Z,29.40
2018-07-03T18:42:33.119Z,29.60
2018-07-03T18:45:01.003Z,29.80
2018-07-03T18:47:28.635Z,30.30
2018-07-03T18:49:56.079Z,30.90
2018-07-03T18:52:23.641Z,31.30
2018-07-03T18:54:51.201Z,31.70
2018-07-03T18:57:18.735Z,32.00
2018-07-03T18:59:46.295Z,32.40
2018-07-03T19:02:13.846Z,33.10
2018-07-03T19:04:41.423Z,33.50
2018-07-03T19:07:08.971Z,34.10
2018-07-03T19:09:36.511Z,34.50
2018-07-03T19:12:04.044Z,34.70
2018-07-03T19:14:31.595Z,35.10
2018-07-03T19:16:59.126Z,36.00
2018-07-03T19:19:26.664Z,36.50
2018-07-03T19:21:54.356Z,37.10
2018-07-03T19:24:29.139Z,37.70
2018-07-03T19:26:56.683Z,38.20
2018-07-03T19:29:24.203Z,38.80
2018-07-03T19:31:51.720Z,39.30
2018-07-03T19:34:19.291Z,39.70
2018-07-03T19:36:46.788Z,40.00
2018-07-03T19:39:14.319Z,40.20
2018-07-03T19:41:42.359Z,40.50
2018-07-03T19:44:10.131Z,40.90
2018-07-03T19:46:37.711Z,41.10
2018-07-03T19:49:05.307Z,41.20
2018-07-03T19:51:32.835Z,41.50
2018-07-03T19:56:28.045Z,41.90
2018-07-03T19:58:56.401Z,42.20
2018-07-03T20:01:23.938Z,42.30
2018-07-03T20:03:51.471Z,42.50
2018-07-03T20:06:18.990Z,42.70
2018-07-03T20:08:46.535Z,42.80
2018-07-03T20:11:14.064Z,42.80
2018-07-03T20:13:41.628Z,43.10
2018-07-03T20:16:22.528Z,43.50
2018-07-03T20:18:50.095Z,43.70
2018-07-03T20:21:17.587Z,44.00
2018-07-03T20:23:45.121Z,44.40
2018-07-03T20:26:12.639Z,44.60
2018-07-03T20:28:40.166Z,44.70
2018-07-03T20:31:07.893Z,44.70
2018-07-03T20:33:48.251Z,44.70
2018-07-03T20:36:15.760Z,44.80
2018-07-03T20:38:43.279Z,45.00
2018-07-03T20:47:27.650Z,45.70
2018-07-03T20:49:55.162Z,45.80
2018-07-03T20:52:22.680Z,45.90
2018-07-03T20:54:50.209Z,46.10
2018-07-03T20:57:17.797Z,46.60
2018-07-03T20:59:45.319Z,46.70
2018-07-03T21:02:12.816Z,46.70
2018-07-03T21:04:40.458Z,46.80
2018-07-03T21:07:07.843Z,47.00
2018-07-03T21:09:35.364Z,47.00
2018-07-03T21:12:02.877Z,47.20
2018-07-03T21:14:30.383Z,47.20
2018-07-03T21:16:57.968Z,47.30
2018-07-03T21:19:25.427Z,47.60
2018-07-03T21:21:53.618Z,47.90
2018-07-03T21:24:21.138Z,47.90
2018-07-03T21:26:48.663Z,48.10
2018-07-03T21:29:16.166Z,48.10
2018-07-03T21:31:43.719Z,48.30
2018-07-03T21:34:18.071Z,48.40
2018-07-03T21:36:53.162Z,48.60
2018-07-03T21:39:24.160Z,48.70
2018-07-03T21:41:51.808Z,48.70
2018-07-03T21:44:23.025Z,49.00
2018-07-03T21:46:50.511Z,49.20
2018-07-03T21:49:18.053Z,49.40
2018-07-03T21:51:45.568Z,49.60
2018-07-03T21:54:34.671Z,49.70
2018-07-03T21:57:14.728Z,49.80
2018-07-03T21:59:42.338Z,49.90
2018-07-03T22:02:19.912Z,49.90
2018-07-03T22:04:50.995Z,49.80
2018-07-03T22:07:18.503Z,49.90
2018-07-03T22:09:46.036Z,49.90
2018-07-03T22:12:13.543Z,50.20
2018-07-03T22:14:41.803Z,50.30
2018-07-03T22:17:10.387Z,50.30
2018-07-03T22:19:37.911Z,50.60
2018-07-03T22:22:05.571Z,50.60
2018-07-03T22:24:33.783Z,50.60
2018-07-03T22:27:01.347Z,50.90
2018-07-03T22:29:28.886Z,50.70
2018-07-03T22:31:56.403Z,50.70
2018-07-03T22:34:23.923Z,50.70
2018-07-03T22:36:51.452Z,50.90
2018-07-03T22:39:19.023Z,50.70
2018-07-03T22:41:46.522Z,50.70
2018-07-03T22:44:14.267Z,50.80
2018-07-03T22:46:41.803Z,50.70
2018-07-03T22:49:09.319Z,50.60
2018-07-03T22:51:37.043Z,51.40
2018-07-03T22:54:04.627Z,50.90
2018-07-03T22:56:32.150Z,51.80
2018-07-03T22:58:59.827Z,51.50
2018-07-03T23:01:27.347Z,51.60
2018-07-03T23:03:54.891Z,51.60
2018-07-03T23:06:22.432Z,51.60
2018-07-03T23:08:50.062Z,51.80
2018-07-03T23:11:17.588Z,51.80
2018-07-03T23:13:45.080Z,51.90
2018-07-03T23:16:12.597Z,52.10
2018-07-03T23:18:40.110Z,52.20
2018-07-03T23:21:07.866Z,52.40
2018-07-03T23:23:35.376Z,52.50
2018-07-03T23:26:02.888Z,52.50
2018-07-03T23:28:30.407Z,52.80
2018-07-03T23:30:57.933Z,53.00
2018-07-03T23:33:25.430Z,53.20
2018-07-03T23:35:52.952Z,53.50
2018-07-03T23:38:20.468Z,53.90
2018-07-03T23:40:47.999Z,54.30
2018-07-03T23:43:15.502Z,54.30
2018-07-03T23:45:48.926Z,54.40
2018-07-03T23:48:34.181Z,54.70
2018-07-03T23:51:19.963Z,55.20
2018-07-03T23:54:05.120Z,55.90
2018-07-03T23:56:51.156Z,55.70
2018-07-03T23:59:36.122Z,55.80
